createdAt,value
2023-02-11T00:02:14.670Z,55.80
2023-02-11T00:04:44.285Z,48.50
2023-02-11T00:10:15.781Z,45.22
2023-02-11T00:13:03.604Z,57.25
2023-02-11T00:15:51.343Z,55.85
2023-02-11T00:18:39.462Z,46.97
2023-02-11T00:21:28.150Z,46.90
2023-02-11T00:24:15.762Z,43.60
2023-02-11T00:27:03.568Z,44.78
2023-02-11T00:29:53.239Z,45.00
2023-02-11T00:32:42.551Z,43.15
2023-02-11T00:35:25.307Z,46.33
2023-02-11T00:38:12.927Z,47.25
2023-02-11T00:41:00.579Z,42.53
2023-02-11T00:43:46.344Z,47.85
2023-02-11T00:46:36.487Z,42.03
2023-02-11T00:49:17.175Z,38.97
2023-02-11T00:51:45.849Z,36.75
2023-02-11T00:54:14.265Z,52.95
2023-02-11T00:56:45.206Z,41.35
2023-02-11T00:59:14.436Z,42.17
2023-02-11T01:02:04.870Z,36.50
2023-02-11T01:04:52.514Z,39.58
2023-02-11T01:07:40.203Z,42.10
2023-02-11T01:10:28.632Z,39.85
2023-02-11T01:12:59.499Z,38.05
2023-02-11T01:15:31.371Z,43.35
2023-02-11T01:18:00.361Z,37.33
2023-02-11T01:20:32.886Z,38.47
2023-02-11T01:23:20.553Z,43.47
2023-02-11T01:26:08.114Z,39.40
2023-02-11T01:28:55.691Z,39.20
2023-02-11T01:31:51.157Z,40.53
2023-02-11T01:34:19.711Z,40.13
2023-02-11T01:36:51.360Z,33.22
2023-02-11T01:39:19.753Z,42.83
2023-02-11T01:41:49.725Z,40.45
2023-02-11T01:44:38.481Z,38.05
2023-02-11T01:47:12.675Z,41.20
2023-02-11T01:49:43.336Z,39.70
2023-02-11T01:52:15.019Z,36.47
2023-02-11T01:55:06.671Z,39.35
2023-02-11T01:57:56.327Z,46.45
2023-02-11T02:00:40.366Z,39.15
2023-02-11T02:03:28.496Z,35.97
2023-02-11T02:06:17.734Z,41.40
2023-02-11T02:09:02.074Z,39.00
2023-02-11T02:11:35.385Z,48.20
2023-02-11T02:14:06.903Z,41.25
2023-02-11T02:16:36.739Z,41.88
2023-02-11T02:19:13.580Z,43.45
2023-02-11T02:21:55.226Z,34.15
2023-02-11T02:24:39.103Z,43.50
2023-02-11T02:27:19.309Z,39.05
2023-02-11T02:30:02.681Z,37.67
2023-02-11T02:33:07.946Z,41.00
2023-02-11T02:35:48.009Z,40.35
2023-02-11T02:38:34.298Z,42.93
2023-02-11T02:41:08.877Z,41.95
2023-02-11T02:43:40.705Z,34.15
2023-02-11T02:46:13.771Z,35.05
2023-02-11T02:48:43.170Z,40.28
2023-02-11T02:51:45.939Z,39.35
2023-02-11T02:54:49.237Z,50.60
2023-02-11T02:57:42.421Z,38.50
2023-02-11T03:00:33.903Z,51.47
2023-02-11T03:03:22.375Z,37.50
2023-02-11T03:06:04.824Z,37.80
2023-02-11T03:08:46.036Z,39.17
2023-02-11T03:11:20.460Z,37.15
2023-02-11T03:13:55.696Z,33.53
2023-02-11T03:16:29.420Z,35.78
2023-02-11T03:19:21.509Z,38.80
2023-02-11T03:22:23.833Z,34.50
2023-02-11T03:24:52.600Z,42.38
2023-02-11T03:27:29.666Z,32.70
2023-02-11T03:30:17.206Z,34.42
2023-02-11T03:33:08.140Z,37.65
2023-02-11T03:35:53.930Z,38.72
2023-02-11T03:38:30.990Z,37.75
2023-02-11T03:41:18.718Z,41.80
2023-02-11T03:43:57.421Z,41.58
2023-02-11T03:46:29.852Z,32.53
2023-02-11T03:49:02.891Z,41.15
2023-02-11T03:51:34.302Z,36.85
2023-02-11T03:54:04.934Z,33.20
2023-02-11T03:56:39.444Z,40.45
2023-02-11T03:59:09.183Z,34.78
2023-02-11T04:01:38.355Z,35.75
2023-02-11T04:04:06.815Z,39.05
2023-02-11T04:06:35.272Z,37.75
2023-02-11T04:09:04.641Z,39.67
2023-02-11T04:11:34.076Z,42.67
2023-02-11T04:14:02.488Z,30.75
2023-02-11T04:16:33.506Z,42.42
2023-02-11T04:19:03.287Z,37.28
2023-02-11T04:21:44.637Z,35.33
2023-02-11T04:24:37.075Z,40.72
2023-02-11T04:27:26.973Z,32.58
2023-02-11T04:30:14.913Z,44.30
2023-02-11T04:33:02.526Z,32.63
2023-02-11T04:35:37.107Z,44.80
2023-02-11T04:38:27.186Z,44.10
2023-02-11T04:41:14.833Z,35.20
2023-02-11T04:46:46.163Z,40.75
2023-02-11T04:49:24.265Z,52.72
2023-02-11T04:52:11.915Z,33.33
2023-02-11T04:54:59.495Z,43.45
2023-02-11T04:57:50.161Z,37.13
2023-02-11T05:00:37.672Z,45.22
2023-02-11T05:03:25.245Z,46.10
2023-02-11T05:05:56.282Z,55.35
2023-02-11T05:08:29.432Z,43.03
2023-02-11T05:11:03.028Z,49.83
2023-02-11T05:13:32.043Z,48.45
2023-02-11T05:16:00.813Z,41.20
2023-02-11T05:18:30.919Z,43.13
2023-02-11T05:20:59.430Z,45.65
2023-02-11T05:23:27.764Z,51.90
2023-02-11T05:25:56.180Z,53.42
2023-02-11T05:28:35.534Z,53.40
2023-02-11T05:31:23.385Z,57.55
2023-02-11T05:34:11.029Z,51.85
2023-02-11T05:36:58.709Z,47.60
2023-02-11T05:39:48.736Z,41.28
2023-02-11T05:42:36.360Z,56.08
2023-02-11T05:45:13.444Z,53.03
2023-02-11T05:48:01.006Z,45.78
2023-02-11T05:50:48.714Z,54.45
2023-02-11T05:53:38.704Z,53.45
2023-02-11T05:56:26.332Z,51.47
2023-02-11T05:59:17.087Z,45.92
2023-02-11T06:02:04.771Z,57.30
2023-02-11T06:04:39.113Z,61.13
2023-02-11T06:07:27.025Z,51.22
2023-02-11T06:10:08.424Z,53.42
2023-02-11T06:12:55.932Z,63.95
2023-02-11T06:15:40.238Z,60.15
2023-02-11T06:18:30.502Z,52.83
2023-02-11T06:21:18.118Z,63.33
2023-02-11T06:24:05.969Z,55.90
2023-02-11T06:26:53.589Z,54.88
2023-02-11T06:29:38.548Z,68.65
2023-02-11T06:32:43.287Z,57.40
2023-02-11T06:35:12.794Z,61.40
2023-02-11T06:37:44.271Z,69.30
2023-02-11T06:40:13.290Z,58.10
2023-02-11T06:42:48.084Z,61.38
2023-02-11T06:45:25.583Z,67.85
2023-02-11T06:48:13.169Z,87.72
2023-02-11T06:51:05.588Z,61.17
2023-02-11T06:53:53.127Z,60.25
2023-02-11T06:56:22.767Z,59.88
2023-02-11T06:58:56.145Z,61.97
2023-02-11T07:01:25.802Z,65.05
2023-02-11T07:03:54.844Z,62.78
2023-02-11T07:06:28.339Z,74.80
2023-02-11T07:08:58.243Z,71.40
2023-02-11T07:11:29.423Z,60.08
2023-02-11T07:14:06.247Z,69.82
2023-02-11T07:16:36.963Z,56.85
2023-02-11T07:19:08.269Z,61.15
2023-02-11T07:21:37.298Z,67.75
2023-02-11T07:24:11.207Z,59.92
2023-02-11T07:26:41.248Z,66.28
2023-02-11T07:29:10.353Z,66.25
2023-02-11T07:31:41.688Z,69.20
2023-02-11T07:34:11.563Z,70.85
2023-02-11T07:36:40.454Z,67.32
2023-02-11T07:39:09.337Z,61.20
2023-02-11T07:41:39.174Z,64.05
2023-02-11T07:44:08.330Z,68.60
2023-02-11T07:46:37.491Z,58.60
2023-02-11T07:49:06.066Z,66.50
2023-02-11T07:51:39.158Z,70.15
2023-02-11T07:54:08.237Z,66.45
2023-02-11T07:56:37.375Z,64.53
2023-02-11T07:59:07.172Z,63.85
2023-02-11T08:01:40.571Z,70.32
2023-02-11T08:04:08.894Z,75.95
2023-02-11T08:06:42.206Z,71.45
2023-02-11T08:09:17.301Z,64.82
2023-02-11T08:11:48.880Z,70.85
2023-02-11T08:14:20.621Z,72.93
2023-02-11T08:16:49.906Z,72.82
2023-02-11T08:19:18.509Z,74.22
2023-02-11T08:21:47.053Z,67.70
2023-02-11T08:24:15.827Z,74.32
2023-02-11T08:26:44.687Z,68.80
2023-02-11T08:29:14.657Z,71.97
2023-02-11T08:31:45.262Z,81.05
2023-02-11T08:34:18.156Z,75.57
2023-02-11T08:36:56.178Z,68.25
2023-02-11T08:39:32.489Z,76.25
2023-02-11T08:42:06.478Z,73.40
2023-02-11T08:44:36.244Z,65.45
2023-02-11T08:47:06.994Z,80.13
2023-02-11T08:49:36.297Z,65.63
2023-02-11T08:52:05.234Z,76.68
2023-02-11T08:54:34.880Z,64.20
2023-02-11T08:57:14.816Z,86.32
2023-02-11T08:59:42.993Z,70.47
2023-02-11T09:02:13.605Z,74.55
2023-02-11T09:04:44.274Z,76.53
2023-02-11T09:07:16.508Z,76.30
2023-02-11T09:09:46.209Z,74.68
2023-02-11T09:12:15.605Z,79.68
2023-02-11T09:14:44.964Z,82.00
2023-02-11T09:17:13.547Z,74.03
2023-02-11T09:19:52.549Z,77.60
2023-02-11T09:22:40.180Z,90.93
2023-02-11T09:25:23.906Z,78.15
2023-02-11T09:28:01.809Z,86.35
2023-02-11T09:30:49.796Z,78.90
2023-02-11T09:33:32.842Z,74.83
2023-02-11T09:36:02.738Z,88.07
2023-02-11T09:38:35.198Z,79.15
2023-02-11T09:41:32.163Z,77.50
2023-02-11T09:44:22.391Z,70.60
2023-02-11T09:47:02.717Z,77.53
2023-02-11T09:49:45.678Z,86.32
2023-02-11T09:52:29.813Z,82.15
2023-02-11T09:55:23.863Z,78.43
2023-02-11T09:57:53.976Z,70.57
2023-02-11T10:00:29.498Z,86.47
2023-02-11T10:03:33.704Z,73.15
2023-02-11T10:06:08.928Z,88.72
2023-02-11T10:08:58.052Z,75.97
2023-02-11T10:11:44.499Z,70.78
2023-02-11T10:14:13.066Z,75.65
2023-02-11T10:16:52.392Z,73.65
2023-02-11T10:19:39.170Z,90.85
2023-02-11T10:22:10.905Z,83.72
2023-02-11T10:24:43.165Z,74.28
2023-02-11T10:27:18.540Z,76.22
2023-02-11T10:29:57.001Z,90.28
2023-02-11T10:32:25.291Z,83.38
2023-02-11T10:34:59.625Z,70.65
2023-02-11T10:37:35.716Z,67.20
2023-02-11T10:40:04.210Z,74.25
2023-02-11T10:42:43.302Z,73.57
2023-02-11T10:45:17.776Z,74.30
2023-02-11T10:47:52.566Z,72.43
2023-02-11T10:50:23.184Z,78.60
2023-02-11T10:52:51.615Z,87.10
2023-02-11T10:58:01.384Z,76.32
2023-02-11T11:00:41.884Z,75.55
2023-02-11T11:03:35.585Z,72.97
2023-02-11T11:06:10.545Z,72.38
2023-02-11T11:08:49.089Z,79.05
2023-02-11T11:11:23.882Z,70.80
2023-02-11T11:13:58.049Z,73.00
2023-02-11T11:16:37.557Z,60.55
2023-02-11T11:19:08.840Z,73.10
2023-02-11T11:21:44.022Z,79.63
2023-02-11T11:24:20.798Z,101.30
2023-02-11T11:26:50.630Z,75.72
2023-02-11T11:29:26.824Z,93.60
2023-02-11T11:31:57.890Z,75.38
2023-02-11T11:34:38.222Z,84.35
2023-02-11T11:37:21.052Z,83.57
2023-02-11T11:39:53.571Z,80.38
2023-02-11T11:42:31.432Z,81.53
2023-02-11T11:45:03.941Z,77.07
2023-02-11T11:47:49.478Z,74.40
2023-02-11T11:50:23.834Z,84.43
2023-02-11T11:52:57.364Z,86.68
2023-02-11T11:55:28.200Z,78.28
2023-02-11T11:57:59.564Z,77.38
2023-02-11T12:00:32.378Z,72.53
2023-02-11T12:03:31.473Z,82.30
2023-02-11T12:06:12.188Z,91.88
2023-02-11T12:08:45.402Z,79.40
2023-02-11T12:11:19.052Z,78.10
2023-02-11T12:14:02.067Z,79.55
2023-02-11T12:16:38.131Z,72.82
2023-02-11T12:19:15.303Z,95.22
2023-02-11T12:21:55.599Z,89.35
2023-02-11T12:24:31.331Z,76.68
2023-02-11T12:26:59.241Z,83.03
2023-02-11T12:29:46.905Z,81.10
2023-02-11T12:32:24.036Z,77.10
2023-02-11T12:34:58.407Z,65.95
2023-02-11T12:37:29.761Z,79.50
2023-02-11T12:40:04.088Z,80.13
2023-02-11T12:43:09.419Z,80.28
2023-02-11T12:45:50.122Z,67.93
2023-02-11T12:48:43.860Z,74.07
2023-02-11T12:51:15.426Z,77.70
2023-02-11T12:53:56.114Z,71.00
2023-02-11T12:56:38.008Z,73.22
2023-02-11T12:59:14.361Z,79.03
2023-02-11T13:01:44.342Z,75.03
2023-02-11T13:04:19.167Z,81.28
2023-02-11T13:06:57.377Z,72.25
2023-02-11T13:09:30.693Z,84.88
2023-02-11T13:12:25.571Z,75.53
2023-02-11T13:14:59.448Z,84.82
2023-02-11T13:17:35.774Z,91.57
2023-02-11T13:20:23.180Z,89.88
2023-02-11T13:23:04.422Z,83.15
2023-02-11T13:25:35.604Z,81.35
2023-02-11T13:28:10.528Z,71.82
2023-02-11T13:30:46.557Z,75.63
2023-02-11T13:33:14.725Z,79.53
2023-02-11T13:35:48.881Z,70.75
2023-02-11T13:38:27.562Z,81.55
2023-02-11T13:41:00.875Z,84.18
2023-02-11T13:43:30.774Z,90.70
2023-02-11T13:46:02.849Z,91.15
2023-02-11T13:48:52.505Z,84.93
2023-02-11T13:51:35.871Z,81.78
2023-02-11T13:54:05.661Z,80.78
2023-02-11T13:56:36.135Z,69.68
2023-02-11T13:59:27.556Z,79.53
2023-02-11T14:02:24.728Z,78.80
2023-02-11T14:05:23.195Z,76.13
2023-02-11T14:08:23.890Z,89.80
2023-02-11T14:10:53.168Z,72.88
2023-02-11T14:13:30.367Z,76.55
2023-02-11T14:16:08.071Z,81.82
2023-02-11T14:18:36.179Z,71.45
2023-02-11T14:21:15.390Z,80.75
2023-02-11T14:23:46.913Z,72.32
2023-02-11T14:26:21.100Z,74.63
2023-02-11T14:28:55.698Z,87.68
2023-02-11T14:31:26.659Z,81.13
2023-02-11T14:33:56.962Z,81.63
2023-02-11T14:36:43.669Z,76.63
2023-02-11T14:39:17.860Z,73.57
2023-02-11T14:41:51.004Z,74.10
2023-02-11T14:44:20.364Z,85.50
2023-02-11T14:46:53.404Z,77.57
2023-02-11T14:49:28.050Z,88.00
2023-02-11T14:52:08.647Z,79.10
2023-02-11T14:54:36.912Z,81.47
2023-02-11T14:57:15.767Z,85.57
2023-02-11T14:59:58.926Z,76.32
2023-02-11T15:02:36.449Z,79.97
2023-02-11T15:05:21.654Z,77.50
2023-02-11T15:07:57.957Z,79.13
2023-02-11T15:10:30.979Z,75.72
2023-02-11T15:13:02.211Z,70.50
2023-02-11T15:15:31.478Z,80.25
2023-02-11T15:18:02.394Z,76.82
2023-02-11T15:20:33.489Z,84.20
2023-02-11T15:23:02.954Z,86.45
2023-02-11T15:25:34.280Z,76.70
2023-02-11T15:28:11.917Z,110.30
2023-02-11T15:30:40.961Z,81.45
2023-02-11T15:33:22.829Z,79.53
2023-02-11T15:35:51.771Z,78.78
2023-02-11T15:38:20.080Z,71.35
2023-02-11T15:41:02.092Z,80.07
2023-02-11T15:43:47.886Z,78.88
2023-02-11T15:46:17.775Z,76.47
2023-02-11T15:48:49.950Z,74.38
2023-02-11T15:51:28.690Z,71.30
2023-02-11T15:53:58.760Z,79.45
2023-02-11T15:56:30.821Z,72.25
2023-02-11T15:59:01.553Z,70.17
2023-02-11T16:01:35.540Z,74.75
2023-02-11T16:04:14.848Z,73.93
2023-02-11T16:06:47.473Z,87.00
2023-02-11T16:09:16.182Z,79.65
2023-02-11T16:11:48.122Z,80.88
2023-02-11T16:14:30.584Z,84.65
2023-02-11T16:17:04.119Z,74.60
2023-02-11T16:19:33.825Z,66.88
2023-02-11T16:22:03.661Z,68.30
2023-02-11T16:24:34.238Z,79.22
2023-02-11T16:27:08.893Z,75.68
2023-02-11T16:29:46.370Z,82.80
2023-02-11T16:32:25.684Z,67.88
2023-02-11T16:34:57.895Z,76.75
2023-02-11T16:37:29.357Z,68.30
2023-02-11T16:40:02.551Z,70.55
2023-02-11T16:42:35.832Z,70.93
2023-02-11T16:45:07.592Z,70.65
2023-02-11T16:47:40.858Z,69.82
2023-02-11T16:50:20.010Z,66.57
2023-02-11T16:52:49.197Z,79.65
2023-02-11T16:55:21.898Z,70.57
2023-02-11T16:57:51.241Z,81.28
2023-02-11T17:00:23.031Z,69.35
2023-02-11T17:03:16.255Z,66.72
2023-02-11T17:05:54.906Z,77.90
2023-02-11T17:08:27.705Z,70.57
2023-02-11T17:11:00.839Z,78.03
2023-02-11T17:13:29.997Z,72.55
2023-02-11T17:16:01.652Z,68.18
2023-02-11T17:18:31.422Z,82.47
2023-02-11T17:20:59.947Z,80.38
2023-02-11T17:23:32.993Z,79.80
2023-02-11T17:26:01.608Z,72.78
2023-02-11T17:28:32.549Z,76.82
2023-02-11T17:31:01.588Z,77.70
2023-02-11T17:33:36.255Z,76.05
2023-02-11T17:36:08.765Z,60.75
2023-02-11T17:38:38.316Z,70.80
2023-02-11T17:41:09.066Z,78.10
2023-02-11T17:43:37.413Z,73.07
2023-02-11T17:46:10.040Z,85.90
2023-02-11T17:51:22.442Z,71.30
2023-02-11T17:53:51.108Z,85.93
2023-02-11T17:56:20.227Z,87.40
2023-02-11T17:58:48.782Z,82.13
2023-02-11T18:01:17.966Z,78.00
2023-02-11T18:03:49.868Z,75.60
2023-02-11T18:06:18.045Z,80.88
2023-02-11T18:08:47.550Z,82.93
2023-02-11T18:11:16.968Z,88.80
2023-02-11T18:13:51.328Z,82.13
2023-02-11T18:16:23.013Z,95.00
2023-02-11T18:18:52.025Z,88.15
2023-02-11T18:21:24.253Z,86.53
2023-02-11T18:23:57.936Z,77.30
2023-02-11T18:26:31.658Z,86.68
2023-02-11T18:29:00.623Z,78.88
2023-02-11T18:31:31.526Z,83.43
2023-02-11T18:34:00.906Z,92.80
2023-02-11T18:36:30.473Z,84.00
2023-02-11T18:39:01.641Z,246.27
2023-02-11T18:41:32.611Z,135.70
2023-02-11T18:44:03.317Z,116.40
2023-02-11T18:46:33.560Z,115.13
2023-02-11T18:49:02.936Z,122.78
2023-02-11T18:51:32.669Z,94.68
2023-02-11T18:54:01.396Z,86.65
2023-02-11T18:56:31.945Z,88.30
2023-02-11T18:59:02.455Z,110.72
2023-02-11T19:01:34.196Z,95.55
2023-02-11T19:04:07.926Z,89.75
2023-02-11T19:06:37.460Z,97.38
2023-02-11T19:09:07.775Z,99.45
2023-02-11T19:11:50.164Z,88.15
2023-02-11T19:14:25.173Z,84.35
2023-02-11T19:17:00.288Z,99.57
2023-02-11T19:19:32.363Z,94.40
2023-02-11T19:22:03.795Z,91.35
2023-02-11T19:24:33.951Z,86.88
2023-02-11T19:27:03.596Z,118.40
2023-02-11T19:29:35.116Z,116.45
2023-02-11T19:32:05.720Z,93.88
2023-02-11T19:34:40.957Z,90.93
2023-02-11T19:37:12.141Z,100.22
2023-02-11T19:39:41.334Z,107.63
2023-02-11T19:42:09.748Z,97.68
2023-02-11T19:44:38.299Z,105.07
2023-02-11T19:47:10.368Z,113.00
2023-02-11T19:49:41.878Z,105.13
2023-02-11T19:52:12.734Z,106.32
2023-02-11T19:54:48.529Z,101.10
2023-02-11T19:57:16.665Z,98.70
2023-02-11T19:59:45.185Z,100.50
2023-02-11T20:02:13.918Z,141.50
2023-02-11T20:04:48.465Z,122.45
2023-02-11T20:07:19.068Z,105.50
2023-02-11T20:09:49.725Z,106.43
2023-02-11T20:12:20.870Z,102.80
2023-02-11T20:17:22.818Z,108.82
2023-02-11T20:19:51.130Z,92.47
2023-02-11T20:22:22.055Z,107.07
2023-02-11T20:24:53.248Z,99.72
2023-02-11T20:27:21.800Z,108.93
2023-02-11T20:29:50.282Z,91.50
2023-02-11T20:32:18.702Z,111.72
2023-02-11T20:34:50.778Z,105.72
2023-02-11T20:37:19.605Z,105.25
2023-02-11T20:39:50.983Z,101.85
2023-02-11T20:42:24.040Z,109.55
2023-02-11T20:44:52.570Z,101.70
2023-02-11T20:47:22.718Z,97.63
2023-02-11T20:49:51.158Z,95.35
2023-02-11T20:52:21.827Z,103.00
2023-02-11T20:54:50.816Z,104.25
2023-02-11T20:57:19.291Z,112.65
2023-02-11T20:59:50.106Z,109.80
2023-02-11T21:02:18.820Z,114.20
2023-02-11T21:04:47.668Z,101.60
2023-02-11T21:07:21.333Z,106.82
2023-02-11T21:09:49.779Z,109.45
2023-02-11T21:12:18.958Z,100.93
2023-02-11T21:14:49.050Z,107.20
2023-02-11T21:17:21.100Z,98.50
2023-02-11T21:19:52.376Z,110.68
2023-02-11T21:22:21.579Z,111.55
2023-02-11T21:24:50.321Z,95.88
2023-02-11T21:27:18.909Z,111.00
2023-02-11T21:29:54.580Z,92.20
2023-02-11T21:32:25.957Z,97.40
2023-02-11T21:35:02.296Z,95.75
2023-02-11T21:37:34.876Z,99.30
2023-02-11T21:40:04.490Z,97.78
2023-02-11T21:42:42.118Z,114.07
2023-02-11T21:45:10.749Z,109.13
2023-02-11T21:47:41.330Z,107.95
2023-02-11T21:50:09.912Z,100.55
2023-02-11T21:52:39.377Z,96.75
2023-02-11T21:55:10.122Z,92.03
2023-02-11T21:57:38.914Z,107.97
2023-02-11T22:00:09.846Z,104.22
2023-02-11T22:02:57.466Z,103.20
2023-02-11T22:05:27.335Z,97.90
2023-02-11T22:07:55.493Z,91.68
2023-02-11T22:10:24.109Z,97.68
2023-02-11T22:12:52.725Z,98.85
2023-02-11T22:15:21.399Z,88.57
2023-02-11T22:17:50.330Z,88.43
2023-02-11T22:20:18.856Z,94.05
2023-02-11T22:22:47.762Z,95.18
2023-02-11T22:25:20.972Z,88.28
2023-02-11T22:27:49.337Z,98.78
2023-02-11T22:30:20.271Z,100.13
2023-02-11T22:33:04.144Z,95.60
2023-02-11T22:35:34.447Z,97.30
2023-02-11T22:38:07.843Z,99.28
2023-02-11T22:40:42.091Z,104.32
2023-02-11T22:43:10.735Z,99.25
2023-02-11T22:45:38.999Z,121.05
2023-02-11T22:48:07.839Z,109.57
2023-02-11T22:50:36.110Z,106.60
2023-02-11T22:53:04.970Z,108.43
2023-02-11T22:55:37.311Z,125.20
2023-02-11T22:58:06.178Z,115.60
2023-02-11T23:00:37.854Z,106.65
2023-02-11T23:03:17.355Z,96.75
2023-02-11T23:05:46.294Z,105.50
2023-02-11T23:08:14.704Z,107.82
2023-02-11T23:10:45.379Z,106.88
2023-02-11T23:13:14.568Z,107.30
2023-02-11T23:15:45.712Z,103.40
2023-02-11T23:18:21.849Z,101.95
2023-02-11T23:20:54.001Z,96.93
2023-02-11T23:23:24.982Z,100.25
2023-02-11T23:25:54.782Z,91.57
2023-02-11T23:28:23.724Z,100.80
2023-02-11T23:30:52.871Z,95.95
2023-02-11T23:33:27.009Z,96.47
2023-02-11T23:35:55.800Z,88.55
2023-02-11T23:38:24.599Z,91.18
2023-02-11T23:40:57.054Z,101.32
2023-02-11T23:43:25.433Z,104.20
2023-02-11T23:45:54.136Z,95.22
2023-02-11T23:48:25.074Z,93.18
2023-02-11T23:50:53.523Z,90.72
2023-02-11T23:53:26.610Z,87.68
2023-02-11T23:55:56.795Z,102.70
2023-02-11T23:58:25.528Z,93.28
